createdAt,value
2022-10-10T00:03:23.322Z,87.05
2022-10-10T00:08:25.277Z,86.96
2022-10-10T00:13:27.072Z,86.07
2022-10-10T00:18:29.263Z,85.86
2022-10-10T00:23:31.167Z,85.97
2022-10-10T00:28:33.644Z,85.54
2022-10-10T00:33:36.727Z,85.48
2022-10-10T00:38:38.507Z,86.44
2022-10-10T00:43:40.753Z,86.47
2022-10-10T00:48:45.261Z,88.16
2022-10-10T00:53:52.901Z,89.24
2022-10-10T00:58:58.024Z,88.49
2022-10-10T01:04:02.269Z,88.96
2022-10-10T01:09:04.019Z,88.93
2022-10-10T01:14:27.692Z,88.32
2022-10-10T01:20:03.497Z,88.37
2022-10-10T01:25:14.547Z,88.31
2022-10-10T01:30:23.185Z,88.38
2022-10-10T01:35:44.603Z,88.36
2022-10-10T01:40:46.307Z,88.69
2022-10-10T01:45:50.635Z,89.34
2022-10-10T01:51:32.184Z,89.37
2022-10-10T01:57:12.544Z,89.58
2022-10-10T02:02:37.347Z,89.87
2022-10-10T02:08:22.875Z,90.52
2022-10-10T02:19:26.563Z,90.28
2022-10-10T02:24:36.268Z,91.01
2022-10-10T02:29:51.224Z,90.83
2022-10-10T02:35:01.540Z,90.74
2022-10-10T05:33:31.742Z,78.22
2022-10-10T05:40:06.575Z,77.96
2022-10-10T05:51:28.616Z,78.36
2022-10-10T06:02:32.541Z,77.94
2022-10-10T06:08:09.173Z,77.78
2022-10-10T06:13:40.978Z,77.59
2022-10-10T06:18:44.768Z,77.68
2022-10-10T06:23:46.956Z,77.14
2022-10-10T06:28:51.490Z,77.44
2022-10-10T06:33:54.035Z,77.16
2022-10-10T07:21:00.439Z,72.93
2022-10-10T07:32:32.666Z,72.57
2022-10-10T07:38:15.286Z,72.70
2022-10-10T08:01:29.076Z,71.79
2022-10-10T10:05:04.246Z,68.82
2022-10-10T10:22:29.501Z,68.20
2022-10-10T10:39:39.344Z,67.52
2022-10-10T10:51:58.238Z,66.75
2022-10-10T10:58:04.094Z,66.31
2022-10-10T12:28:07.996Z,67.88
2022-10-10T12:45:46.676Z,67.16
2022-10-10T13:31:48.346Z,63.77
